Latest Weather Observations for Winton

IDQ60801

Issued at 8:05 am EST Thursday 2 October 2014 (issued every 30 minutes, with the page automatically refreshed every 10 minutes)

About weather observations | Map of weather stations | Latest weather observations for QLD | Other Formats
Station Details ID: 037039 Name: WINTON AIRPORT Lat: -22.36 Lon: 143.08 Height: 192.2 m
Data from the previous 72 hours. | See also: Recent months at Winton
Date/Time
EST
Temp
°C
App
Temp
°C
Dew
Point
Rel
Hum
%
Delta-T
°C
Wind Press
QNH
hPa
Press
MSL
hPa
Rain
since 9 am
mm
Dir
 
Spd
km/h
Gust
km/h
Spd
kts
Gust
kts
02/08:00am 25.3 20.6 3.3 24 10.9 SE 17 22 9 12 1017.9 1016.8 0.0
02/07:30am 22.1 19.6 1.7 26 9.6 SE 4 7 2 4 1017.7 1016.6 0.0
02/07:00am 19.3 17.2 1.8 31 8.0 WNW 2 6 1 3 1017.1 1015.9 0.0
02/06:30am 17.8 15.8 2.2 35 7.1 S 2 4 1 2 1016.6 1015.4 0.0
02/06:00am 17.3 14.4 1.3 34 7.2 SSW 6 9 3 5 1016.3 1015.1 0.0
02/05:30am 18.9 16.4 3.5 36 7.3 S 6 7 3 4 1015.8 1014.7 0.0
02/05:00am 19.1 16.8 2.5 33 7.7 SW 4 6 2 3 1015.3 1014.2 0.0
02/04:30am 19.8 16.6 3.1 33 7.9 SSW 9 11 5 6 1015.3 1014.2 0.0
02/04:00am 19.3 16.3 1.8 31 8.0 SW 7 9 4 5 1015.1 1014.0 0.0
02/03:30am 19.6 16.6 2.0 31 8.1 SW 7 7 4 4 1014.9 1013.8 0.0
02/03:00am 20.7 17.4 2.5 30 8.6 S 9 9 5 5 1015.1 1014.0 0.0
02/02:30am 20.3 16.9 1.7 29 8.6 SSW 9 11 5 6 1015.3 1014.2 0.0
02/02:00am 21.4 17.3 2.2 28 9.0 S 13 15 7 8 1015.3 1014.2 0.0
02/01:30am 21.5 17.5 2.7 29 9.0 S 13 15 7 8 1015.1 1014.0 0.0
02/01:00am 20.5 17.4 1.4 28 8.8 SSW 7 9 4 5 1015.1 1014.0 0.0
02/12:30am 20.5 17.3 0.9 27 8.9 SW 7 7 4 4 1015.2 1014.1 0.0
02/12:00am 21.6 19.8 1.3 26 9.4 CALM 0 0 0 0 1015.1 1014.0 0.0
 
Date/Time
EST
Temp
°C
App
Temp
°C
Dew
Point
Rel
Hum
%
Delta-T
°C
Wind Press
QNH
hPa
Press
MSL
hPa
Rain
since 9 am
mm
Dir
 
Spd
km/h
Gust
km/h
Spd
kts
Gust
kts
01/11:30pm 21.8 19.3 1.5 26 9.5 E 4 7 2 4 1015.2 1014.1 0.0
01/11:00pm 22.6 19.2 1.6 25 9.9 E 9 11 5 6 1015.1 1014.0 0.0
01/10:30pm 23.5 20.1 1.8 24 10.3 E 9 11 5 6 1015.1 1014.0 0.0
01/10:00pm 24.1 20.3 1.7 23 10.7 E 11 13 6 7 1015.1 1014.0 0.0
01/09:30pm 25.0 21.3 2.4 23 11.0 ESE 11 13 6 7 1015.2 1014.1 0.0
01/09:00pm 25.7 22.0 2.4 22 11.4 ESE 11 11 6 6 1015.1 1014.0 0.0
01/08:30pm 27.2 24.0 3.0 21 12.1 E 9 13 5 7 1014.9 1013.8 0.0
01/08:00pm 28.9 25.1 3.7 20 12.8 E 13 15 7 8 1014.5 1013.4 0.0
01/07:30pm 29.2 25.5 2.5 18 13.4 E 11 13 6 7 1014.4 1013.3 0.0
01/07:00pm 31.4 27.5 3.4 17 14.4 E 13 17 7 9 1014.0 1012.9 0.0
01/06:30pm 33.2 28.5 3.1 15 15.6 ESE 17 20 9 11 1013.7 1012.6 0.0
01/06:00pm 34.2 29.1 2.9 14 16.3 ESE 19 30 10 16 1013.4 1012.3 0.0
01/05:30pm 35.2 29.8 1.5 12 17.2 SE 19 26 10 14 1013.3 1012.2 0.0
01/05:00pm 35.8 29.9 2.0 12 17.5 SE 22 32 12 17 1013.2 1012.1 0.0
01/04:30pm 36.5 30.4 2.5 12 17.8 SE 24 39 13 21 1013.1 1012.0 0.0
01/04:01pm 36.5 29.4 1.3 11 18.1 ESE 28 48 15 26 1013.2 1012.1 0.0
01/04:00pm 36.7 30.0 1.5 11 18.1 ESE 26 48 14 26 1013.2 1012.1 0.0
01/03:30pm 36.9 29.7 2.8 12 18.0 SE 30 35 16 19 1013.3 1012.2 0.0
01/03:00pm 36.5 30.7 2.5 12 17.8 SE 22 46 12 25 1013.7 1012.6 0.0
01/02:30pm 36.4 30.4 3.6 13 17.4 E 24 35 13 19 1014.0 1012.9 0.0
01/02:00pm 36.3 31.1 5.5 15 16.8 E 22 30 12 16 1014.5 1013.4 0.0
01/01:30pm 35.5 29.6 5.8 16 16.3 SE 26 39 14 21 1015.2 1014.1 0.0
01/01:00pm 35.6 31.1 5.9 16 16.3 E 19 33 10 18 1015.8 1014.7 0.0
01/12:30pm 34.3 30.1 5.8 17 15.5 E 17 26 9 14 1016.5 1015.3 0.0
01/12:00pm 33.8 29.3 6.2 18 15.1 ESE 19 28 10 15 1017.0 1015.8 0.0
01/11:30am 33.2 29.7 7.2 20 14.4 E 15 24 8 13 1017.5 1016.4 0.0
01/11:00am 32.8 29.9 8.3 22 13.7 ENE 13 20 7 11 1017.8 1016.7 0.0
01/10:30am 30.4 28.1 7.6 24 12.5 NNE 9 17 5 9 1018.1 1017.0 0.0
01/10:00am 29.1 27.0 8.2 27 11.5 NNE 9 15 5 8 1018.5 1017.4 0.0
01/09:30am 28.2 25.5 9.0 30 10.7 NNE 13 20 7 11 1018.6 1017.8 0.0
01/09:00am 26.4 23.8 9.3 34 9.4 NNE 13 20 7 11 1018.6 1017.8 0.0
01/08:30am 23.9 19.9 8.3 37 8.4 NNE 19 24 10 13 1018.6 1017.8 0.0
01/08:00am 22.2 17.8 7.6 39 7.6 NNE 20 24 11 13 1018.4 1017.6 0.0
01/07:30am 20.7 17.2 5.5 37 7.6 NE 13 17 7 9 1018.1 1017.3 0.0
01/07:00am 19.1 15.8 4.5 38 7.1 ENE 11 13 6 7 1017.5 1016.6 0.0
01/06:30am 17.1 13.3 3.8 41 6.3 ENE 13 15 7 8 1017.2 1016.3 0.0
01/06:00am 17.3 14.7 4.3 42 6.2 ENE 7 7 4 4 1016.8 1015.9 0.0
01/05:30am 17.6 15.6 4.2 41 6.4 NE 4 6 2 3 1016.4 1015.5 0.0
01/05:00am 18.2 15.6 4.0 39 6.8 ENE 7 7 4 4 1015.8 1015.0 0.0
01/04:30am 18.6 16.1 3.6 37 7.1 E 6 7 3 4 1015.5 1014.7 0.0
01/04:00am 19.6 17.1 4.5 37 7.3 ENE 7 9 4 5 1015.2 1014.4 0.0
01/03:30am 20.4 17.1 4.8 36 7.7 NE 11 13 6 7 1015.1 1014.3 0.0
01/03:00am 20.6 17.0 5.0 36 7.7 NE 13 15 7 8 1015.0 1014.2 0.0
01/02:30am 21.1 17.4 4.6 34 8.1 NE 13 17 7 9 1015.2 1014.4 0.0
01/02:00am 21.2 17.4 3.9 32 8.4 NE 13 17 7 9 1015.2 1014.4 0.0
01/01:30am 22.0 17.9 4.1 31 8.8 NE 15 17 8 9 1015.5 1014.7 0.0
01/01:00am 22.1 18.3 3.7 30 9.0 NE 13 15 7 8 1015.6 1014.8 0.0
01/12:30am 23.5 18.6 4.0 28 9.7 NE 19 26 10 14 1015.8 1015.0 0.0
01/12:00am 23.8 18.8 3.7 27 9.9 ENE 19 24 10 13 1016.0 1015.1 0.0
 
Date/Time
EST
Temp
°C
App
Temp
°C
Dew
Point
Rel
Hum
%
Delta-T
°C
Wind Press
QNH
hPa
Press
MSL
hPa
Rain
since 9 am
mm
Dir
 
Spd
km/h
Gust
km/h
Spd
kts
Gust
kts
30/11:30pm 23.7 19.4 3.1 26 10.0 ENE 15 19 8 10 1016.2 1015.3 0.0
30/11:00pm 24.3 19.6 3.0 25 10.4 ENE 17 20 9 11 1016.3 1015.4 0.0
30/10:30pm 24.8 19.9 2.3 23 10.9 ENE 17 22 9 12 1016.2 1015.3 0.0
30/10:00pm 25.4 20.5 2.2 22 11.2 ENE 17 24 9 13 1016.2 1015.3 0.0
30/09:30pm 25.8 21.2 1.8 21 11.6 ENE 15 19 8 10 1016.1 1015.2 0.0
30/09:00pm 26.8 21.9 2.0 20 12.1 ENE 17 20 9 11 1015.8 1015.0 0.0
30/08:30pm 27.2 22.5 0.8 18 12.6 ENE 15 19 8 10 1015.4 1014.6 0.0
30/08:00pm 28.3 23.6 0.9 17 13.2 E 15 19 8 10 1015.0 1014.2 0.0
30/07:30pm 28.1 23.6 -0.1 16 13.4 E 13 15 7 8 1014.6 1013.8 0.0
30/07:00pm 29.0 24.9 -0.2 15 13.9 E 11 13 6 7 1014.1 1013.3 0.0
30/06:30pm 31.6 26.9 0.9 14 15.2 ESE 15 19 8 10 1013.8 1013.0 0.0
30/06:00pm 33.2 29.3 1.1 13 16.1 ESE 11 19 6 10 1013.4 1012.6 0.0
30/05:30pm 34.2 29.9 0.8 12 16.8 SE 13 19 7 10 1013.1 1012.2 0.0
30/05:00pm 34.2 30.2 0.8 12 16.8 E 11 20 6 11 1012.9 1012.0 0.0
30/04:30pm 34.3 30.5 2.0 13 16.5 E 11 22 6 12 1012.8 1011.9 0.0
30/04:00pm 35.3 31.1 1.6 12 17.3 E 13 24 7 13 1012.9 1012.0 0.0
30/03:30pm 34.2 29.8 2.9 14 16.3 SE 15 26 8 14 1013.1 1012.2 0.0
30/03:00pm 33.8 29.0 2.6 14 16.1 SSE 17 24 9 13 1013.4 1012.6 0.0
30/02:30pm 33.9 31.4 4.6 16 15.6 E 7 20 4 11 1013.9 1013.1 0.0
30/02:00pm 33.1 30.4 3.9 16 15.3 S 7 15 4 8 1014.4 1013.6 0.0
30/01:30pm 33.3 30.3 5.8 18 14.9 NE 11 20 6 11 1014.9 1014.1 0.0
30/01:00pm 33.4 29.8 6.6 19 14.7 NE 15 35 8 19 1015.3 1014.5 0.0
30/12:30pm 32.8 29.5 6.2 19 14.5 E 13 28 7 15 1016.2 1015.3 0.0
30/12:00pm 31.9 27.4 6.9 21 13.7 ENE 20 30 11 16 1016.9 1016.0 0.0
30/11:30am 31.1 27.8 8.2 24 12.7 E 15 24 8 13 1017.6 1016.7 0.0
30/11:00am 30.2 27.3 9.7 28 11.6 NNE 15 26 8 14 1018.3 1017.5 0.0
30/10:30am 29.3 25.8 10.9 32 10.6 NNE 20 32 11 17 1018.7 1017.9 0.0
30/10:00am 28.7 24.8 10.8 33 10.3 NNE 22 33 12 18 1019.0 1018.2 0.0
30/09:30am 26.8 22.8 10.5 36 9.2 NNE 22 30 12 16 1019.3 1018.5 0.0
30/09:00am 25.8 21.0 10.4 38 8.6 NNE 26 33 14 18 1019.2 1018.4 0.0
30/08:30am 24.5 19.0 10.4 41 7.9 NNE 30 35 16 19 1019.0 1018.2 0.0
30/08:00am 23.4 18.3 10.5 44 7.2 NNE 28 35 15 19 1018.8 1018.0 0.0
30/07:30am 21.2 16.8 9.1 46 6.5 NE 22 30 12 16 1018.5 1017.7 0.0
30/07:00am 19.6 15.3 7.7 46 6.1 NE 20 26 11 14 1018.2 1017.4 0.0
30/06:30am 19.4 15.7 7.8 47 6.0 NE 17 20 9 11 1017.8 1016.9 0.0
30/06:00am 19.4 15.1 7.2 45 6.2 NE 19 22 10 12 1017.4 1016.5 0.0
30/05:30am 19.9 15.6 7.0 43 6.6 ENE 19 26 10 14 1017.0 1016.1 0.0
30/05:00am 20.0 16.0 6.7 42 6.8 ENE 17 22 9 12 1016.5 1015.6 0.0
30/04:30am 20.6 16.9 6.5 40 7.2 ENE 15 19 8 10 1016.0 1015.1 0.0
30/04:00am 21.3 18.1 6.8 39 7.4 ENE 13 19 7 10 1015.4 1014.6 0.0
30/03:30am 22.3 17.8 6.9 37 8.0 NE 20 26 11 14 1015.1 1014.3 0.0
30/03:00am 22.9 17.7 7.1 36 8.2 NE 24 33 13 18 1015.1 1014.3 0.0
30/02:30am 23.7 18.5 7.3 35 8.6 ENE 24 35 13 19 1015.1 1014.3 0.0
30/02:00am 23.9 18.7 7.1 34 8.8 ENE 24 37 13 20 1015.2 1014.4 0.0
30/01:30am 24.5 19.4 7.6 34 9.0 ENE 24 30 13 16 1015.2 1014.4 0.0
30/01:00am 24.8 18.9 7.4 33 9.2 ENE 28 35 15 19 1015.2 1014.4 0.0
30/12:30am 24.5 19.6 6.7 32 9.3 E 22 28 12 15 1015.5 1014.7 0.0
30/12:00am 25.0 20.4 6.7 31 9.6 E 20 28 11 15 1015.6 1014.8 0.0
 
Date/Time
EST
Temp
°C
App
Temp
°C
Dew
Point
Rel
Hum
%
Delta-T
°C
Wind Press
QNH
hPa
Press
MSL
hPa
Rain
since 9 am
mm
Dir
 
Spd
km/h
Gust
km/h
Spd
kts
Gust
kts
29/11:30pm 25.3 20.3 6.5 30 9.8 E 22 32 12 17 1015.7 1014.9 0.0
29/11:00pm 26.1 21.7 6.7 29 10.2 E 19 24 10 13 1015.7 1014.9 0.0
29/10:30pm 25.6 21.0 5.8 28 10.3 E 19 22 10 12 1015.7 1014.9 0.0
29/10:00pm 26.4 21.2 5.4 26 10.9 E 22 26 12 14 1015.7 1014.9 0.0
29/09:30pm 27.0 21.4 5.3 25 11.2 E 24 32 13 17 1015.6 1014.8 0.0
29/09:00pm 27.5 22.1 4.5 23 11.8 E 22 32 12 17 1015.3 1014.5 0.0
29/08:30pm 27.9 22.8 4.2 22 12.1 E 20 28 11 15 1015.0 1014.2 0.0
29/08:00pm 28.9 23.9 3.7 20 12.8 E 19 22 10 12 1014.5 1013.7 0.0
29/07:30pm 28.8 24.3 2.1 18 13.2 E 15 17 8 9 1014.1 1013.3 0.0
29/07:00pm 29.9 25.4 2.2 17 13.8 E 15 17 8 9 1013.8 1013.0 0.0
29/06:30pm 31.6 26.8 2.7 16 14.7 E 17 22 9 12 1013.4 1012.6 0.0
29/06:00pm 32.8 28.2 1.8 14 15.7 E 15 19 8 10 1012.9 1012.0 0.0
29/05:30pm 33.9 28.7 2.7 14 16.1 ENE 19 28 10 15 1012.7 1011.8 0.0
29/05:00pm 34.0 30.0 2.8 14 16.2 ENE 13 22 7 12 1012.4 1011.5 0.0
29/04:30pm 34.4 30.1 3.1 14 16.3 E 15 30 8 16 1012.3 1011.4 0.0
29/04:00pm 34.3 30.3 3.0 14 16.3 NE 13 22 7 12 1012.2 1011.3 0.0
29/03:30pm 34.6 29.9 3.2 14 16.4 NE 17 24 9 13 1012.4 1011.5 0.0
29/03:00pm 34.1 30.7 3.8 15 16.0 NE 11 20 6 11 1012.7 1011.8 0.0
29/02:30pm 34.5 30.7 4.1 15 16.1 NE 13 19 7 10 1013.1 1012.2 0.0
29/02:00pm 34.9 31.4 5.4 16 16.0 NE 13 24 7 13 1013.3 1012.4 0.0
29/01:30pm 34.1 30.1 4.7 16 15.7 ENE 15 28 8 15 1013.9 1013.1 0.0
29/01:00pm 34.0 30.3 4.6 16 15.7 NNE 13 24 7 13 1014.4 1013.6 0.0
29/12:30pm 33.1 29.5 4.8 17 15.1 E 13 28 7 15 1014.9 1014.1 0.0
29/12:00pm 32.6 29.0 5.2 18 14.6 NE 13 22 7 12 1015.4 1014.6 0.0
29/11:30am 32.4 28.2 5.8 19 14.3 N 17 28 9 15 1015.7 1014.9 0.0
29/11:00am 31.4 26.2 7.1 22 13.3 NE 24 35 13 19 1016.1 1015.2 0.0
29/10:30am 30.5 24.6 7.7 24 12.5 NNE 28 39 15 21 1016.4 1015.5 0.0
29/10:00am 29.6 22.9 8.1 26 11.8 NNE 33 43 18 23 1016.7 1015.8 0.0
29/09:30am 28.2 21.7 8.0 28 11.0 NNE 32 43 17 23 1017.0 1016.1 0.0
29/09:00am 26.9 20.3 7.9 30 10.3 NE 32 43 17 23 1017.2 1016.3 0.0
29/08:30am 25.6 18.8 7.7 32 9.6 NE 33 41 18 22 1017.1 1016.2 0.0

Other Formats:

Comma delimited format used in spreadsheet applications
http://www.bom.gov.au/fwo/IDQ60801/IDQ60801.94342.axf

JavaScript Object Notation format (JSON) in row-major order
http://www.bom.gov.au/fwo/IDQ60801/IDQ60801.94342.json